Schaumburg, IL

1:46 PM CDT on August 28, 2015 (GMT -0500)
Yardley | | Change Station
CLOSE
Current Station
Personal Weather Station
Location: Hoffman Estates, IL
Elevation: 810 ft
Nearby Weather Stations

Elev 810 ft 42.04 °N, 88.11 °W | Updated 24 seconds ago

Partly Cloudy
Partly Cloudy
70.7 °F
Feels Like 73 °F
N
2.0
Wind Variable Wind from WNW
Gusts 2.0 mph

Today
High -- | Low -- °F
--% Chance of Precip.
Yesterday
High -- | Low -- °F
Precip. -- in
6:13 AM 7:32 PM
Waxing Gibbous, 98% visible
Pressure 30.14 in
Visibility 10.0 miles
Clouds Few 9000 ft
Scattered Clouds 11000 ft
Heat Index 73 °F
Dew Point 62 °F
Humidity 75%
Rainfall 0.00 in
Snow Depth Not available.
UV 7 out of 12
Pollen 8.60 out of 12
Air Quality Not available.
Flu Activity Not available.
METAR KPWK 281752Z 21007KT 10SM FEW090 SCT110 22/14 A3015 RMK AO2 SLP206 T02220144 10233 20144 58003
Pressure 30.14 in
Visibility 10.0 miles
Clouds Few 9000 ft
Scattered Clouds 11000 ft
Heat Index 73 °F
Dew Point 62 °F
Humidity 75%
Rainfall 0.00 in
Snow Depth Not available.
UV 7 out of 12
Pollen 8.60 out of 12
Air Quality Not available.
Flu Activity Not available.
METAR KPWK 281752Z 21007KT 10SM FEW090 SCT110 22/14 A3015 RMK AO2 SLP206 T02220144 10233 20144 58003

10-Day Weather Forecast

×

Almanac

Astronomy

Aug. 28, 2015 Rise Set
Actual Time
Civil Twilight
Nautical Twilight
Astronomical Twilight
Moon
Length of Visible Light
Length of Day
Tomorrow will be .
, % of the Moon is Illuminated

Today's Extremes

State Highs State Lows

Community

WunderPhotos

Upload Photos

1,850,453 photos uploaded!

WunderBlogs® & News

Nearby

Air Quality

  Air Quality AQ Index Pollutant
Not available.

Snow Depth

Station Depth Elevation

Earthquake Activity

City Distance Mag. Time & Date
Minimum magnitude displayed is 2.5.

Coastal Water Temperatures

Place Temperature

Stations

Nearby Weather Stations

Station Location Temp. Windchill Dew Point Humidity Wind Precip. Elev Updated Type